Time;durP1;ratioP1;P1;durP2;ratioP2;P2;SDS_P1;SDS_P2;PMS_P1;PMS_P2;Temp;Humidity;BMP_temperature;BMP_pressure;BME280_temperature;BME280_humidity;BME280_pressure;Samples;Min_cycle;Max_cycle;Signal;HPM_P1;HPM_P2
2021/04/29 00:02:02;;;;;;;12.98;8.55;;;1.90;99.90;;;;;;4962039;28;20058;-64
2021/04/29 00:04:29;;;;;;;15.00;9.95;;;1.90;99.90;;;;;;4963034;28;20053;-63
2021/04/29 00:06:56;;;;;;;11.80;8.05;;;1.90;99.90;;;;;;4962262;28;20069;-63
2021/04/29 00:09:22;;;;;;;10.18;7.70;;;1.80;99.90;;;;;;4962108;28;20477;-64
2021/04/29 00:11:49;;;;;;;12.95;9.02;;;1.80;99.90;;;;;;4967729;28;20654;-64
2021/04/29 00:14:15;;;;;;;13.82;9.00;;;1.70;99.90;;;;;;4960972;28;20480;-64
2021/04/29 00:16:43;;;;;;;10.27;7.85;;;1.70;99.90;;;;;;4962460;28;20465;-67
2021/04/29 00:19:10;;;;;;;12.35;7.88;;;1.70;99.90;;;;;;4962059;28;20050;-63
2021/04/29 00:21:37;;;;;;;12.63;9.38;;;1.60;99.90;;;;;;4963600;28;20058;-66
2021/04/29 00:24:05;;;;;;;14.02;9.65;;;1.70;99.90;;;;;;4959674;28;20059;-65
2021/04/29 00:26:31;;;;;;;11.52;8.63;;;1.60;99.90;;;;;;4963013;28;20485;-64
2021/04/29 00:28:58;;;;;;;11.68;9.05;;;1.60;99.90;;;;;;4959176;28;20055;-65
2021/04/29 00:31:24;;;;;;;13.77;9.20;;;1.60;99.90;;;;;;4960224;28;20113;-64
2021/04/29 00:33:51;;;;;;;13.40;9.65;;;1.60;99.90;;;;;;4956439;28;20050;-67
2021/04/29 00:36:17;;;;;;;13.65;9.05;;;1.60;99.90;;;;;;4961439;28;20043;-64
2021/04/29 00:38:43;;;;;;;11.50;8.45;;;1.50;99.90;;;;;;4960298;28;20449;-64
2021/04/29 00:41:10;;;;;;;14.40;10.18;;;1.50;99.90;;;;;;4962710;28;20110;-67
2021/04/29 00:43:36;;;;;;;19.20;10.20;;;1.50;99.90;;;;;;4961185;28;20055;-65
2021/04/29 00:46:03;;;;;;;12.43;9.70;;;1.50;99.90;;;;;;4961789;28;20051;-65
2021/04/29 00:48:30;;;;;;;15.07;9.32;;;1.40;99.90;;;;;;4963671;28;20070;-64
2021/04/29 00:50:56;;;;;;;13.02;8.98;;;1.40;99.90;;;;;;4966684;28;20054;-67
2021/04/29 00:53:42;;;;;;;13.35;7.32;;;1.40;99.90;;;;;;4960444;28;20544;-64
2021/04/29 00:56:10;;;;;;;12.02;8.48;;;1.40;99.90;;;;;;4961419;28;20437;-65
2021/04/29 00:58:38;;;;;;;10.68;7.32;;;1.30;99.90;;;;;;4961282;28;20079;-67
2021/04/29 01:01:05;;;;;;;9.88;6.97;;;1.30;99.90;;;;;;4964806;28;20121;-67
2021/04/29 01:03:40;;;;;;;10.38;8.38;;;1.30;99.90;;;;;;4958952;28;20051;-64
2021/04/29 01:06:17;;;;;;;11.75;7.07;;;1.30;99.90;;;;;;4961383;28;20433;-65
2021/04/29 01:09:23;;;;;;;10.20;7.15;;;1.20;99.90;;;;;;4963233;28;20046;-67
2021/04/29 01:11:59;;;;;;;8.73;7.05;;;1.20;99.90;;;;;;4962132;28;20102;-63
2021/04/29 01:14:28;;;;;;;11.18;8.15;;;1.20;99.90;;;;;;4964216;28;20094;-66
2021/04/29 01:16:57;;;;;;;11.40;7.47;;;1.20;99.90;;;;;;4965393;28;20555;-64
2021/04/29 01:19:38;;;;;;;12.38;8.15;;;1.20;99.90;;;;;;4961684;28;20149;-63
2021/04/29 01:22:06;;;;;;;9.02;7.18;;;1.20;99.90;;;;;;4958963;28;20055;-66
2021/04/29 01:24:41;;;;;;;9.95;6.80;;;1.20;99.90;;;;;;4964742;28;20109;-63
2021/04/29 01:27:08;;;;;;;10.75;7.43;;;1.30;99.90;;;;;;4967149;28;20725;-64
2021/04/29 01:29:36;;;;;;;7.85;6.82;;;1.30;99.90;;;;;;4962349;28;20063;-64
2021/04/29 01:32:03;;;;;;;9.93;6.03;;;1.30;99.90;;;;;;4965289;28;20496;-64
2021/04/29 01:34:37;;;;;;;8.50;6.47;;;1.30;99.90;;;;;;4962278;28;20090;-67
2021/04/29 01:37:04;;;;;;;11.40;6.88;;;1.40;99.90;;;;;;4966429;28;20046;-64
2021/04/29 01:39:31;;;;;;;11.23;7.68;;;1.40;99.90;;;;;;4963045;28;20055;-64
2021/04/29 01:41:59;;;;;;;7.35;6.53;;;1.40;99.90;;;;;;4965425;28;20101;-66
2021/04/29 01:44:27;;;;;;;10.75;6.72;;;1.40;99.90;;;;;;4962528;28;20054;-65
2021/04/29 01:46:58;;;;;;;11.73;7.82;;;1.40;99.90;;;;;;4966462;28;20093;-64
2021/04/29 01:49:26;;;;;;;11.30;7.13;;;1.50;99.90;;;;;;4958111;28;20074;-63
2021/04/29 01:51:53;;;;;;;9.40;6.68;;;1.50;99.90;;;;;;4964250;28;20057;-66
2021/04/29 01:54:22;;;;;;;9.98;6.32;;;1.40;99.90;;;;;;4962842;28;20054;-64
2021/04/29 01:56:49;;;;;;;8.57;6.88;;;1.50;99.90;;;;;;4964884;28;20099;-64
2021/04/29 01:59:16;;;;;;;11.13;6.70;;;1.50;99.90;;;;;;4964518;28;20053;-67
2021/04/29 02:01:43;;;;;;;7.10;6.13;;;1.50;99.90;;;;;;4963971;28;20047;-67
2021/04/29 02:04:12;;;;;;;9.93;6.18;;;1.50;99.90;;;;;;4966657;28;20047;-67
2021/04/29 02:06:44;;;;;;;9.25;6.13;;;1.50;99.90;;;;;;4961966;28;20058;-66
2021/04/29 02:09:11;;;;;;;7.75;6.95;;;1.50;99.90;;;;;;4962209;28;20095;-67
2021/04/29 02:11:41;;;;;;;9.02;6.07;;;1.50;99.90;;;;;;4961924;28;20437;-66
2021/04/29 02:14:10;;;;;;;7.35;5.75;;;1.60;99.90;;;;;;4965845;28;20054;-66
2021/04/29 02:16:43;;;;;;;8.25;7.13;;;1.60;99.90;;;;;;4958516;28;20077;-64
2021/04/29 02:19:12;;;;;;;7.57;5.82;;;1.60;99.90;;;;;;4959377;28;20489;-65
2021/04/29 02:21:42;;;;;;;6.90;5.63;;;1.60;99.90;;;;;;4961160;28;20055;-65
2021/04/29 02:24:11;;;;;;;7.45;5.40;;;1.60;99.90;;;;;;4964333;28;20086;-62
2021/04/29 02:26:38;;;;;;;9.13;5.82;;;1.70;99.90;;;;;;4963664;28;20055;-68
2021/04/29 02:29:06;;;;;;;12.73;6.55;;;1.70;99.90;;;;;;4963344;28;20493;-63
2021/04/29 02:31:35;;;;;;;7.53;5.75;;;1.70;99.90;;;;;;4962313;28;20113;-64
2021/04/29 02:34:03;;;;;;;9.70;6.32;;;1.70;99.90;;;;;;4964188;28;20042;-67
2021/04/29 02:36:32;;;;;;;9.55;6.15;;;1.70;99.90;;;;;;4962808;28;20440;-64
2021/04/29 02:38:59;;;;;;;7.57;5.68;;;1.70;99.90;;;;;;4963543;28;20066;-65
2021/04/29 02:41:26;;;;;;;9.57;5.20;;;1.70;99.90;;;;;;4962468;28;20098;-64
2021/04/29 02:43:53;;;;;;;7.55;6.80;;;1.70;99.90;;;;;;4961892;28;20050;-65
2021/04/29 02:46:19;;;;;;;7.72;5.85;;;1.60;99.90;;;;;;4965600;28;20054;-64
2021/04/29 02:48:46;;;;;;;9.93;6.40;;;1.70;99.90;;;;;;4960634;28;20059;-65
2021/04/29 02:51:13;;;;;;;8.00;5.63;;;1.70;99.90;;;;;;4963662;28;20055;-64
2021/04/29 02:53:42;;;;;;;8.27;4.57;;;1.60;99.90;;;;;;4961491;28;20061;-63
2021/04/29 02:56:08;;;;;;;7.72;5.13;;;1.60;99.90;;;;;;4943662;28;20059;-66
2021/04/29 02:58:55;;;;;;;10.93;6.05;;;1.60;99.90;;;;;;4963820;28;20050;-64
2021/04/29 03:01:21;;;;;;;9.25;5.55;;;1.60;99.90;;;;;;4958927;28;20101;-65
2021/04/29 03:03:48;;;;;;;9.55;5.22;;;1.70;99.90;;;;;;4965766;28;20083;-66
2021/04/29 03:06:15;;;;;;;10.18;5.53;;;1.60;99.90;;;;;;4962903;28;20552;-63
2021/04/29 03:08:41;;;;;;;8.13;5.25;;;1.70;99.90;;;;;;4963454;28;20378;-66
2021/04/29 03:11:08;;;;;;;6.93;5.10;;;1.60;99.90;;;;;;4962684;28;20101;-64
2021/04/29 03:13:34;;;;;;;7.43;5.47;;;1.60;99.90;;;;;;4963519;28;20116;-65
2021/04/29 03:16:01;;;;;;;8.07;4.80;;;1.60;99.90;;;;;;4962325;28;20063;-65
2021/04/29 03:18:27;;;;;;;6.15;4.57;;;1.60;99.90;;;;;;4963749;28;20082;-64
2021/04/29 03:20:54;;;;;;;6.07;4.45;;;1.60;99.90;;;;;;4962773;28;20397;-66
2021/04/29 03:23:20;;;;;;;5.88;4.70;;;1.60;99.90;;;;;;4961841;28;20077;-64
2021/04/29 03:25:47;;;;;;;7.53;4.57;;;1.60;99.90;;;;;;4963072;28;20955;-66
2021/04/29 03:28:13;;;;;;;7.28;3.97;;;1.60;99.90;;;;;;4961760;28;20456;-65
2021/04/29 03:30:40;;;;;;;9.88;4.18;;;1.60;99.90;;;;;;4963158;28;20054;-66
2021/04/29 03:33:06;;;;;;;4.65;3.22;;;1.70;99.90;;;;;;4961515;28;20050;-64
2021/04/29 03:35:34;;;;;;;5.85;3.10;;;1.70;99.90;;;;;;4963946;28;20262;-63
2021/04/29 03:38:00;;;;;;;6.13;3.50;;;1.70;99.90;;;;;;4962991;28;20066;-63
2021/04/29 03:40:26;;;;;;;5.63;2.97;;;1.80;99.90;;;;;;4964297;28;20043;-64
2021/04/29 03:42:54;;;;;;;4.97;2.65;;;1.80;99.90;;;;;;4964498;28;20065;-65
2021/04/29 03:45:22;;;;;;;5.47;5.07;;;1.80;99.90;;;;;;4960535;28;20051;-62
2021/04/29 03:47:48;;;;;;;3.35;2.80;;;1.80;99.90;;;;;;4963581;28;20055;-63
2021/04/29 03:50:16;;;;;;;3.60;2.95;;;1.80;99.90;;;;;;4964682;28;20070;-65
2021/04/29 03:52:42;;;;;;;4.53;3.50;;;1.90;99.90;;;;;;4967894;28;20047;-64
2021/04/29 03:55:09;;;;;;;4.00;2.85;;;1.90;99.90;;;;;;4959728;28;20124;-62
2021/04/29 03:57:35;;;;;;;5.32;2.85;;;2.00;99.90;;;;;;4964176;28;20560;-68
2021/04/29 04:00:04;;;;;;;6.82;2.95;;;2.00;99.90;;;;;;4962416;28;20110;-66
2021/04/29 04:02:31;;;;;;;4.97;3.45;;;2.00;99.90;;;;;;4960749;28;20105;-65
2021/04/29 04:04:57;;;;;;;4.65;2.88;;;2.10;99.90;;;;;;4961353;28;20134;-64
2021/04/29 04:07:23;;;;;;;2.95;2.45;;;2.10;99.90;;;;;;4960881;28;20496;-65
2021/04/29 04:09:50;;;;;;;6.68;2.30;;;2.20;99.90;;;;;;4960063;28;20721;-63
2021/04/29 04:12:17;;;;;;;5.20;2.95;;;2.20;99.90;;;;;;4963554;28;20163;-64
2021/04/29 04:14:44;;;;;;;2.63;2.28;;;2.30;99.90;;;;;;4958185;28;20105;-64
2021/04/29 04:17:11;;;;;;;2.80;2.28;;;2.30;99.90;;;;;;4961860;28;20082;-66
2021/04/29 04:19:37;;;;;;;4.00;2.17;;;2.40;99.90;;;;;;4960294;28;20100;-65
2021/04/29 04:22:03;;;;;;;11.25;3.10;;;2.50;99.90;;;;;;4961361;28;20094;-64
2021/04/29 04:24:31;;;;;;;2.47;2.03;;;2.50;99.90;;;;;;4960360;28;20121;-66
2021/04/29 04:26:57;;;;;;;4.10;2.33;;;2.60;99.90;;;;;;4960509;28;20988;-63
2021/04/29 04:29:24;;;;;;;2.83;2.28;;;2.60;99.90;;;;;;4961437;28;20046;-67
2021/04/29 04:31:50;;;;;;;3.92;2.40;;;2.70;99.90;;;;;;4960954;28;20533;-67
2021/04/29 04:34:17;;;;;;;2.00;1.80;;;2.70;99.90;;;;;;4963387;28;20055;-63
2021/04/29 04:36:43;;;;;;;2.30;1.83;;;2.80;99.90;;;;;;4964395;28;20133;-66
2021/04/29 04:39:10;;;;;;;6.32;2.80;;;2.90;99.90;;;;;;4960830;28;20077;-65
2021/04/29 04:41:36;;;;;;;5.10;3.13;;;3.00;99.90;;;;;;4962642;28;20232;-65
2021/04/29 04:44:03;;;;;;;4.78;2.67;;;3.20;99.90;;;;;;4963460;28;20049;-64
2021/04/29 04:46:29;;;;;;;4.65;2.70;;;3.30;99.90;;;;;;4969528;28;20050;-64
2021/04/29 04:48:56;;;;;;;5.32;2.75;;;3.40;99.90;;;;;;4965180;28;20061;-65
2021/04/29 04:51:23;;;;;;;5.72;2.72;;;3.60;99.90;;;;;;4964408;28;20117;-62
2021/04/29 04:53:49;;;;;;;5.32;2.80;;;3.70;99.90;;;;;;4963068;28;20046;-68
2021/04/29 04:56:16;;;;;;;3.95;2.53;;;3.80;99.90;;;;;;4966305;28;20873;-63
2021/04/29 04:58:43;;;;;;;6.38;2.72;;;3.90;99.90;;;;;;4948307;28;20054;-65
2021/04/29 05:01:09;;;;;;;2.35;1.70;;;4.00;99.90;;;;;;4964747;28;20109;-66
2021/04/29 05:03:36;;;;;;;4.00;2.08;;;4.10;99.90;;;;;;4963101;28;20477;-65
2021/04/29 05:06:03;;;;;;;3.92;3.30;;;4.10;99.90;;;;;;4965076;28;20061;-64
2021/04/29 05:08:29;;;;;;;1.75;1.65;;;4.20;99.90;;;;;;4967573;28;20644;-66
2021/04/29 05:10:56;;;;;;;3.28;2.55;;;4.30;99.90;;;;;;4966683;28;20456;-67
2021/04/29 05:13:23;;;;;;;4.88;2.15;;;4.30;99.90;;;;;;4964789;28;20101;-63
2021/04/29 05:15:49;;;;;;;5.40;2.58;;;4.40;99.90;;;;;;4965422;28;20065;-65
2021/04/29 05:18:16;;;;;;;5.35;2.03;;;4.50;99.90;;;;;;4963950;28;20071;-63
2021/04/29 05:20:44;;;;;;;3.17;1.77;;;4.60;99.90;;;;;;4965724;28;20119;-62
2021/04/29 05:23:11;;;;;;;7.55;2.70;;;4.70;99.90;;;;;;4965501;28;20458;-64
2021/04/29 05:25:37;;;;;;;3.13;1.77;;;4.80;99.90;;;;;;4959414;28;20145;-65
2021/04/29 05:28:05;;;;;;;2.20;1.73;;;4.80;99.90;;;;;;4963296;28;20049;-64
2021/04/29 05:30:32;;;;;;;5.13;2.33;;;4.90;99.90;;;;;;4963395;28;20133;-68
2021/04/29 05:32:58;;;;;;;1.80;1.30;;;5.00;99.90;;;;;;4966168;28;20047;-65
2021/04/29 05:35:25;;;;;;;2.88;2.20;;;5.20;99.90;;;;;;4962999;28;20420;-65
2021/04/29 05:37:52;;;;;;;6.70;2.45;;;5.30;99.90;;;;;;4965160;28;20058;-64
2021/04/29 05:40:19;;;;;;;2.70;1.85;;;5.40;99.90;;;;;;4964611;28;20043;-64
2021/04/29 05:42:45;;;;;;;6.57;2.20;;;5.50;99.90;;;;;;4963593;28;20571;-64
2021/04/29 05:45:12;;;;;;;3.35;2.20;;;5.70;99.90;;;;;;4966622;28;20467;-64
2021/04/29 05:47:40;;;;;;;3.78;1.75;;;5.90;99.90;;;;;;4957429;28;20047;-65
2021/04/29 05:50:08;;;;;;;2.65;2.05;;;6.10;99.90;;;;;;4965705;28;20058;-62
2021/04/29 05:52:34;;;;;;;4.85;2.08;;;6.10;99.90;;;;;;4961746;28;20128;-64
2021/04/29 05:55:01;;;;;;;4.45;1.92;;;6.20;99.90;;;;;;4963458;28;20062;-66
2021/04/29 05:57:27;;;;;;;4.05;2.53;;;6.20;99.90;;;;;;4962512;28;20062;-67
2021/04/29 05:59:54;;;;;;;6.68;2.20;;;6.30;99.90;;;;;;4962310;28;20054;-63
2021/04/29 06:02:31;;;;;;;4.65;2.30;;;6.30;99.90;;;;;;2677756;28;10003352;-64
2021/04/29 06:04:57;;;;;;;6.68;2.58;;;6.30;99.90;;;;;;2910203;28;10001144;-64
2021/04/29 06:07:23;;;;;;;3.60;2.33;;;6.30;99.90;;;;;;4964322;28;20578;-65
2021/04/29 06:09:50;;;;;;;4.93;2.15;;;6.40;99.90;;;;;;4971307;28;20126;-66
2021/04/29 06:12:18;;;;;;;2.35;1.60;;;6.40;99.90;;;;;;4967272;28;20055;-63
2021/04/29 06:14:44;;;;;;;2.58;1.83;;;6.50;99.90;;;;;;4967438;28;20441;-66
2021/04/29 06:17:11;;;;;;;4.28;1.95;;;6.50;99.90;;;;;;4964920;28;20039;-66
2021/04/29 06:19:39;;;;;;;2.90;1.85;;;6.60;99.90;;;;;;4965748;28;20519;-63
2021/04/29 06:22:05;;;;;;;6.63;2.25;;;6.60;99.90;;;;;;4961257;28;20468;-66
2021/04/29 06:24:32;;;;;;;3.97;2.45;;;6.70;99.90;;;;;;4965661;28;20424;-66
2021/04/29 06:26:58;;;;;;;2.92;1.73;;;6.80;99.90;;;;;;4962561;28;20489;-63
2021/04/29 06:29:25;;;;;;;4.07;2.05;;;6.90;99.90;;;;;;4963156;28;20637;-66
2021/04/29 06:31:51;;;;;;;3.40;2.20;;;6.90;99.90;;;;;;4964121;28;20047;-66
2021/04/29 06:34:18;;;;;;;2.70;2.15;;;6.90;99.90;;;;;;4947962;28;20059;-63
2021/04/29 06:36:44;;;;;;;1.48;1.38;;;6.90;99.90;;;;;;4964999;28;20086;-65
2021/04/29 06:39:11;;;;;;;2.25;1.90;;;6.90;99.90;;;;;;4965666;28;20409;-63
2021/04/29 06:41:38;;;;;;;6.28;2.33;;;6.90;99.90;;;;;;4965348;28;20532;-64
2021/04/29 06:44:04;;;;;;;2.63;2.33;;;6.90;99.90;;;;;;4967087;28;20055;-65
2021/04/29 06:46:31;;;;;;;3.10;2.20;;;7.00;99.90;;;;;;4962380;28;20050;-65
2021/04/29 06:48:57;;;;;;;4.03;2.40;;;7.00;99.90;;;;;;4970391;28;20058;-65
2021/04/29 06:51:24;;;;;;;2.22;1.80;;;6.90;99.90;;;;;;4962392;28;20117;-63
2021/04/29 06:54:04;;;;;;;4.45;1.77;;;7.00;99.90;;;;;;4964978;28;20117;-63
2021/04/29 06:56:30;;;;;;;20.25;3.10;;;7.00;99.90;;;;;;4964711;28;20043;-63
2021/04/29 06:59:05;;;;;;;3.30;2.28;;;7.00;99.90;;;;;;4965838;28;20117;-64
2021/04/29 07:01:32;;;;;;;4.32;1.60;;;7.10;99.90;;;;;;4962230;28;20077;-67
2021/04/29 07:03:58;;;;;;;4.85;2.33;;;7.20;99.90;;;;;;4964388;28;20126;-64
2021/04/29 07:06:25;;;;;;;2.22;1.88;;;7.30;99.90;;;;;;4962805;28;20043;-64
2021/04/29 07:08:57;;;;;;;3.08;2.83;;;7.30;99.90;;;;;;4964768;28;20059;-62
2021/04/29 07:11:24;;;;;;;4.60;2.00;;;7.50;99.90;;;;;;4963218;28;20047;-64
2021/04/29 07:13:50;;;;;;;4.78;2.45;;;7.50;99.90;;;;;;4962055;28;20089;-65
2021/04/29 07:16:17;;;;;;;1.92;1.75;;;7.60;99.90;;;;;;4969124;28;20397;-64
2021/04/29 07:18:43;;;;;;;4.65;1.90;;;7.60;99.90;;;;;;4965882;28;20074;-65
2021/04/29 07:21:10;;;;;;;2.95;1.73;;;7.70;99.90;;;;;;4966206;28;20480;-66
2021/04/29 07:23:36;;;;;;;4.50;2.22;;;7.70;99.90;;;;;;4965188;28;20057;-62
2021/04/29 07:26:03;;;;;;;6.50;2.85;;;7.80;99.90;;;;;;4963204;28;20050;-63
2021/04/29 07:28:30;;;;;;;2.05;1.73;;;7.90;99.90;;;;;;4962005;28;20059;-63
2021/04/29 07:30:56;;;;;;;2.63;1.98;;;7.90;99.90;;;;;;4962482;28;20082;-63
2021/04/29 07:33:23;;;;;;;3.03;2.33;;;8.00;99.90;;;;;;4964354;28;20085;-64
2021/04/29 07:35:50;;;;;;;2.53;2.35;;;8.10;99.90;;;;;;4963189;28;20460;-65
2021/04/29 07:38:16;;;;;;;3.88;1.60;;;8.10;99.90;;;;;;4962907;28;20078;-63
2021/04/29 07:40:43;;;;;;;5.10;2.28;;;8.20;99.90;;;;;;4963149;28;20576;-66
2021/04/29 07:43:09;;;;;;;8.00;2.28;;;8.40;99.90;;;;;;4962677;28;20094;-64
2021/04/29 07:45:35;;;;;;;15.52;3.05;;;8.50;99.90;;;;;;4961491;28;20458;-63
2021/04/29 07:48:02;;;;;;;3.67;2.00;;;8.60;99.90;;;;;;4966114;28;20563;-64
2021/04/29 07:50:31;;;;;;;2.42;2.10;;;8.80;99.90;;;;;;4962781;28;20043;-65
2021/04/29 07:53:01;;;;;;;3.42;2.40;;;8.90;99.90;;;;;;4964281;28;20051;-63
2021/04/29 07:55:28;;;;;;;3.42;2.67;;;9.00;99.90;;;;;;4961268;28;20560;-65
2021/04/29 07:57:54;;;;;;;3.83;2.15;;;9.00;99.90;;;;;;4962965;28;20133;-63
2021/04/29 08:00:21;;;;;;;5.47;2.50;;;9.00;99.90;;;;;;4962726;28;20398;-65
2021/04/29 08:02:48;;;;;;;4.35;2.20;;;9.00;99.90;;;;;;4959832;28;20055;-64
2021/04/29 08:05:17;;;;;;;4.13;2.72;;;9.00;99.90;;;;;;4960644;28;20150;-64
2021/04/29 08:07:44;;;;;;;4.60;3.20;;;8.90;99.90;;;;;;4962918;28;20055;-65
2021/04/29 08:10:11;;;;;;;3.22;2.92;;;8.90;99.90;;;;;;4962644;28;20050;-63
2021/04/29 08:12:38;;;;;;;5.82;2.83;;;8.80;99.90;;;;;;4964127;28;20078;-64
2021/04/29 08:15:05;;;;;;;5.53;2.63;;;8.80;99.90;;;;;;4962140;28;20042;-63
2021/04/29 08:17:32;;;;;;;5.07;2.58;;;8.80;99.90;;;;;;4961413;28;20054;-66
2021/04/29 08:19:58;;;;;;;4.15;2.88;;;8.80;99.90;;;;;;4963798;28;20046;-63
2021/04/29 08:22:27;;;;;;;2.47;2.28;;;8.80;99.90;;;;;;4963279;28;20475;-65
2021/04/29 08:24:55;;;;;;;3.33;2.58;;;8.80;99.90;;;;;;4963014;28;20105;-66
2021/04/29 08:27:23;;;;;;;6.18;2.80;;;8.70;99.90;;;;;;4960418;28;20464;-67
2021/04/29 08:29:50;;;;;;;4.10;2.42;;;8.70;99.90;;;;;;4965780;28;20049;-63
2021/04/29 08:32:17;;;;;;;4.20;2.33;;;8.70;99.90;;;;;;4962022;28;20473;-67
2021/04/29 08:34:44;;;;;;;5.13;3.08;;;8.70;99.90;;;;;;4966056;28;20047;-64
2021/04/29 08:37:10;;;;;;;3.05;2.55;;;8.80;99.90;;;;;;4962107;28;20205;-64
2021/04/29 08:39:37;;;;;;;8.18;2.60;;;8.90;99.90;;;;;;4962856;28;20508;-64
2021/04/29 08:42:04;;;;;;;4.18;2.83;;;9.20;99.90;;;;;;4962535;28;20059;-64
2021/04/29 08:44:33;;;;;;;6.93;2.50;;;9.50;99.90;;;;;;4963406;28;20050;-63
2021/04/29 08:47:16;;;;;;;4.18;2.88;;;9.80;99.90;;;;;;4958184;28;20070;-64
2021/04/29 08:49:42;;;;;;;5.72;2.17;;;10.10;99.90;;;;;;4964643;28;20043;-63
2021/04/29 08:52:09;;;;;;;3.50;2.83;;;10.30;99.90;;;;;;4965208;28;20050;-68
2021/04/29 08:54:38;;;;;;;6.95;3.30;;;10.30;99.90;;;;;;4963197;28;20055;-63
2021/04/29 08:57:05;;;;;;;3.58;3.28;;;10.20;99.90;;;;;;4962078;28;20055;-65
2021/04/29 08:59:33;;;;;;;5.68;3.15;;;10.10;99.90;;;;;;4961341;28;20137;-63
2021/04/29 09:01:59;;;;;;;6.85;3.53;;;10.10;99.90;;;;;;4965043;28;20054;-65
2021/04/29 09:04:27;;;;;;;7.07;2.78;;;10.10;99.90;;;;;;4966441;28;20046;-64
2021/04/29 09:06:55;;;;;;;9.82;3.85;;;10.20;99.90;;;;;;4961044;28;20631;-64
2021/04/29 09:09:22;;;;;;;15.45;6.03;;;10.20;99.90;;;;;;4963456;28;20114;-62
2021/04/29 09:11:53;;;;;;;5.93;3.78;;;10.30;99.90;;;;;;4961562;28;20136;-63
2021/04/29 09:14:42;;;;;;;9.90;3.40;;;10.20;99.90;;;;;;4962029;28;20051;-63
2021/04/29 09:17:10;;;;;;;11.40;3.90;;;10.20;99.90;;;;;;4960276;28;20043;-63
2021/04/29 09:19:50;;;;;;;5.13;3.05;;;10.20;99.90;;;;;;4962021;28;20061;-63
2021/04/29 09:22:21;;;;;;;8.77;3.47;;;10.20;99.90;;;;;;4959192;28;20046;-64
2021/04/29 09:24:48;;;;;;;5.00;2.70;;;10.10;99.90;;;;;;4962510;28;20047;-65
2021/04/29 09:27:15;;;;;;;6.13;3.80;;;10.10;99.90;;;;;;4960117;28;20178;-63
2021/04/29 09:29:55;;;;;;;5.03;2.67;;;10.20;99.90;;;;;;4963085;28;20051;-63
2021/04/29 09:32:23;;;;;;;5.53;3.83;;;10.40;99.90;;;;;;4965474;28;20441;-64
2021/04/29 09:34:49;;;;;;;6.97;3.75;;;10.60;99.90;;;;;;4966564;28;20295;-64
2021/04/29 09:37:26;;;;;;;5.63;4.22;;;10.70;99.90;;;;;;4964681;28;20101;-63
2021/04/29 09:39:59;;;;;;;5.10;3.45;;;10.80;99.90;;;;;;4965110;28;20559;-65
2021/04/29 09:42:34;;;;;;;4.80;3.72;;;11.00;99.90;;;;;;4966160;28;20082;-64
2021/04/29 09:45:02;;;;;;;5.88;3.22;;;11.10;99.90;;;;;;4964699;28;20051;-67
2021/04/29 09:47:29;;;;;;;5.32;3.45;;;11.00;99.90;;;;;;4964479;28;20469;-66
2021/04/29 09:49:56;;;;;;;4.90;4.20;;;11.00;99.90;;;;;;4964737;28;20061;-64
2021/04/29 09:52:25;;;;;;;5.18;3.58;;;11.00;99.90;;;;;;4968160;28;20051;-66
2021/04/29 09:54:55;;;;;;;4.55;3.90;;;10.90;99.90;;;;;;4946147;28;20042;-64
2021/04/29 09:57:26;;;;;;;;;;;10.80;99.90;;;;;;4965726;28;20124;-66
2021/04/29 09:59:58;;;;;;;5.22;3.03;;;10.90;99.90;;;;;;4964246;28;19930;-65
2021/04/29 10:02:26;;;;;;;6.35;4.63;;;10.90;99.90;;;;;;4975940;28;20057;-63
2021/04/29 10:04:54;;;;;;;7.00;3.65;;;10.90;99.90;;;;;;4964334;28;20082;-64
2021/04/29 10:07:22;;;;;;;7.65;3.28;;;10.90;99.90;;;;;;4964396;28;20066;-63
2021/04/29 10:09:49;;;;;;;4.78;3.67;;;11.00;99.90;;;;;;4964453;28;20109;-63
2021/04/29 10:12:24;;;;;;;4.60;4.15;;;11.20;99.90;;;;;;4971008;28;20043;-67
2021/04/29 10:14:52;;;;;;;5.30;3.67;;;11.30;99.90;;;;;;4965063;28;20039;-65
2021/04/29 10:17:20;;;;;;;5.93;3.83;;;11.40;99.90;;;;;;4945934;28;20208;-63
2021/04/29 10:19:50;;;;;;;7.50;4.45;;;11.50;99.90;;;;;;4960193;28;20138;-63
2021/04/29 10:22:17;;;;;;;6.38;4.40;;;11.70;99.90;;;;;;4963459;28;20054;-63
2021/04/29 10:24:45;;;;;;;6.70;5.35;;;11.80;99.90;;;;;;4964479;28;20109;-63
2021/04/29 10:27:18;;;;;;;4.75;3.47;;;11.90;99.90;;;;;;4963717;28;20043;-64
2021/04/29 10:29:45;;;;;;;7.18;4.70;;;12.10;99.90;;;;;;4962966;28;20046;-65
2021/04/29 10:32:13;;;;;;;4.97;3.95;;;12.10;99.90;;;;;;4963726;28;20136;-67
2021/04/29 10:34:50;;;;;;;5.15;4.18;;;12.20;99.90;;;;;;4965290;28;20046;-64
2021/04/29 10:37:19;;;;;;;7.13;4.20;;;12.10;99.90;;;;;;4963450;28;20070;-63
2021/04/29 10:39:55;;;;;;;7.20;4.22;;;12.10;99.90;;;;;;4964482;28;20596;-65
2021/04/29 10:42:24;;;;;;;4.57;3.47;;;12.20;99.90;;;;;;4962204;28;20493;-65
2021/04/29 10:44:52;;;;;;;4.97;3.67;;;12.20;99.90;;;;;;4965569;28;20046;-66
2021/04/29 10:47:30;;;;;;;5.00;4.15;;;12.30;99.90;;;;;;4962496;28;20062;-67
2021/04/29 10:50:17;;;;;;;4.88;4.47;;;12.30;99.90;;;;;;4965217;28;20043;-63
2021/04/29 10:52:57;;;;;;;8.38;4.88;;;12.40;99.90;;;;;;4963799;28;20070;-66
2021/04/29 10:55:28;;;;;;;4.65;3.80;;;12.20;99.90;;;;;;4962913;28;20062;-68
2021/04/29 10:57:56;;;;;;;4.80;4.35;;;12.20;99.90;;;;;;4962566;28;20129;-63
2021/04/29 11:00:25;;;;;;;6.28;4.47;;;12.30;99.90;;;;;;4966319;28;20059;-63
2021/04/29 11:03:06;;;;;;;16.42;4.18;;;12.40;99.90;;;;;;4965029;28;20065;-65
2021/04/29 11:05:36;;;;;;;6.20;4.53;;;12.50;99.90;;;;;;4963085;28;20050;-65
2021/04/29 11:08:09;;;;;;;6.28;5.68;;;12.60;99.90;;;;;;4964308;28;20070;-66
2021/04/29 11:10:37;;;;;;;4.95;4.45;;;12.70;99.90;;;;;;4965752;28;20817;-63
2021/04/29 11:13:06;;;;;;;6.38;4.93;;;12.80;99.90;;;;;;4964581;28;20109;-65
2021/04/29 11:15:34;;;;;;;12.10;5.15;;;12.80;99.90;;;;;;4961301;28;20125;-65
2021/04/29 11:18:04;;;;;;;12.48;5.85;;;12.70;99.90;;;;;;4965719;28;20047;-63
2021/04/29 11:20:40;;;;;;;;;;;12.70;99.90;;;;;;4963810;28;20113;-63
2021/04/29 11:23:06;;;;;;;7.10;4.72;;;12.80;99.90;;;;;;4961430;28;19949;-67
2021/04/29 11:25:33;;;;;;;5.93;5.40;;;12.80;99.90;;;;;;4961300;28;20094;-64
2021/04/29 11:27:59;;;;;;;5.53;4.97;;;12.90;99.90;;;;;;4964187;28;20456;-66
2021/04/29 11:30:26;;;;;;;6.07;4.85;;;12.80;99.90;;;;;;4962237;28;20103;-63
2021/04/29 11:32:58;;;;;;;7.93;5.82;;;12.80;99.90;;;;;;4962358;28;20066;-64
2021/04/29 11:35:27;;;;;;;5.68;4.75;;;12.70;99.90;;;;;;4955549;28;20053;-65
2021/04/29 11:37:55;;;;;;;7.20;4.80;;;12.60;99.90;;;;;;4963588;28;20556;-63
2021/04/29 11:40:22;;;;;;;9.55;5.88;;;12.70;99.90;;;;;;4963388;28;20058;-66
2021/04/29 11:42:55;;;;;;;8.20;5.50;;;12.90;99.90;;;;;;4961466;28;20093;-64
2021/04/29 11:45:28;;;;;;;5.82;4.78;;;13.10;99.90;;;;;;4956862;28;20524;-64
2021/04/29 11:48:03;;;;;;;10.27;5.53;;;13.30;99.90;;;;;;4962558;28;20065;-64
2021/04/29 11:50:33;;;;;;;6.65;5.03;;;13.50;99.90;;;;;;4961959;28;20123;-64
2021/04/29 11:53:05;;;;;;;6.93;5.28;;;13.60;99.90;;;;;;4962235;28;20077;-67
2021/04/29 11:55:32;;;;;;;5.22;4.72;;;13.60;99.90;;;;;;4960105;28;20473;-64
2021/04/29 11:58:13;;;;;;;8.13;5.50;;;13.80;99.90;;;;;;4962473;28;20505;-65
2021/04/29 12:00:45;;;;;;;7.32;5.03;;;13.80;99.90;;;;;;4960688;28;20047;-63
2021/04/29 12:03:12;;;;;;;9.40;5.07;;;13.90;99.90;;;;;;4976876;28;20054;-64
2021/04/29 12:05:42;;;;;;;5.63;5.00;;;14.10;99.90;;;;;;4956172;28;20047;-63
2021/04/29 12:08:14;;;;;;;6.95;5.20;;;14.10;99.90;;;;;;4960446;28;20171;-64
2021/04/29 12:11:08;;;;;;;10.00;4.75;;;14.20;99.90;;;;;;4961800;28;20054;-63
2021/04/29 12:13:37;;;;;;;13.32;6.38;;;14.20;99.90;;;;;;4959976;28;20055;-65
2021/04/29 12:16:05;;;;;;;11.40;6.22;;;14.30;99.90;;;;;;4960321;28;20055;-66
2021/04/29 12:18:33;;;;;;;4.95;4.45;;;14.40;99.90;;;;;;4957161;28;20062;-65
2021/04/29 12:21:01;;;;;;;6.03;4.93;;;14.40;99.90;;;;;;4960163;28;20047;-63
2021/04/29 12:23:30;;;;;;;5.63;5.05;;;14.40;99.90;;;;;;4958984;28;20054;-65
2021/04/29 12:26:06;;;;;;;5.35;4.03;;;14.50;99.90;;;;;;4960332;28;20054;-63
2021/04/29 12:28:42;;;;;;;4.93;4.30;;;14.40;99.90;;;;;;4959927;28;20434;-64
2021/04/29 12:31:13;;;;;;;8.35;5.90;;;14.30;99.90;;;;;;4960113;28;20054;-64
2021/04/29 12:34:05;;;;;;;7.30;5.50;;;14.30;99.90;;;;;;4959875;28;20107;-65
2021/04/29 12:36:47;;;;;;;8.63;4.93;;;14.30;99.90;;;;;;4962573;28;20065;-67
2021/04/29 12:39:15;;;;;;;7.20;5.07;;;14.30;99.90;;;;;;4961275;28;20412;-67
2021/04/29 12:41:57;;;;;;;5.38;4.47;;;14.30;99.90;;;;;;4960906;28;20153;-66
2021/04/29 12:44:39;;;;;;;7.30;5.50;;;14.30;99.90;;;;;;4961466;28;20636;-64
2021/04/29 12:47:07;;;;;;;6.95;4.88;;;14.40;99.90;;;;;;4961761;28;20046;-65
2021/04/29 12:49:40;;;;;;;7.25;4.88;;;14.40;99.90;;;;;;4960301;28;20819;-65
2021/04/29 12:52:12;;;;;;;7.00;5.53;;;14.50;99.90;;;;;;4962942;28;20070;-67
2021/04/29 12:54:40;;;;;;;5.68;5.18;;;14.50;99.90;;;;;;4960991;28;20070;-65
2021/04/29 12:57:08;;;;;;;7.53;5.63;;;14.50;99.90;;;;;;4959715;28;20057;-64
2021/04/29 12:59:46;;;;;;;7.03;5.72;;;14.40;99.90;;;;;;4957710;28;20213;-65
2021/04/29 13:02:12;;;;;;;6.75;4.75;;;14.50;99.90;;;;;;4964571;28;20062;-64